Terminal Aerodrome Forecast
Issued by NWS Spokane, WA

Home | Current Version | Previous Version | Text Only | Print | Product List | Glossary On
Versions: 1 2 3 4 5 6 7 8 9 10 11 12
000
FTUS46 KOTX 260526
TAFEAT
TAF
KEAT 260526Z 2606/2706 36006KT P6SM SCT120
     FM261000 30006KT P6SM SKC
     FM261800 24003KT P6SM FEW090 FEW200
     FM262100 13005KT P6SM FEW090 SCT150
     FM270200 29009KT P6SM BKN150=

USA.gov is the U.S. government's official web portal to all federal, state and local government web resources and services.